createdAt,value
2018-04-12T00:01:42.522Z,37.50
2018-04-12T00:04:10.847Z,38.28
2018-04-12T00:06:39.121Z,40.12
2018-04-12T00:09:07.387Z,40.72
2018-04-12T00:11:36.766Z,41.16
2018-04-12T00:14:05.610Z,43.94
2018-04-12T00:16:33.878Z,44.52
2018-04-12T00:19:02.149Z,44.32
2018-04-12T00:21:30.490Z,43.04
2018-04-12T00:23:58.786Z,44.64
2018-04-12T00:26:27.081Z,49.66
2018-04-12T00:28:55.358Z,46.34
2018-04-12T00:31:23.658Z,47.82
2018-04-12T00:33:51.921Z,50.44
2018-04-12T00:36:20.219Z,50.28
2018-04-12T00:38:48.543Z,54.08
2018-04-12T00:41:17.680Z,51.66
2018-04-12T00:43:46.850Z,51.60
2018-04-12T00:46:14.345Z,50.86
2018-04-12T00:48:42.646Z,52.24
2018-04-12T00:51:10.908Z,51.30
2018-04-12T00:53:51.917Z,52.56
2018-04-12T00:56:20.243Z,55.56
2018-04-12T00:58:48.541Z,49.00
2018-04-12T01:01:17.478Z,53.40
2018-04-12T01:03:45.858Z,54.68
2018-04-12T01:06:14.150Z,52.26
2018-04-12T01:08:42.457Z,51.26
2018-04-12T01:11:10.717Z,52.92
2018-04-12T01:13:38.990Z,52.96
2018-04-12T01:16:07.289Z,49.12
2018-04-12T01:18:34.794Z,50.84
2018-04-12T01:21:03.092Z,48.26
2018-04-12T01:23:33.198Z,50.40
2018-04-12T01:26:02.559Z,51.22
2018-04-12T01:28:32.089Z,46.68
2018-04-12T01:31:01.339Z,55.10
2018-04-12T01:33:30.582Z,50.08
2018-04-12T01:35:58.879Z,51.54
2018-04-12T01:38:27.177Z,49.22
2018-04-12T01:40:55.458Z,53.26
2018-04-12T01:43:23.764Z,52.58
2018-04-12T01:45:51.247Z,52.70
2018-04-12T01:48:19.523Z,50.34
2018-04-12T01:50:47.799Z,51.50
2018-04-12T01:53:16.137Z,50.06
2018-04-12T01:55:44.377Z,48.88
2018-04-12T01:58:11.874Z,50.56
2018-04-12T02:00:40.167Z,48.02
2018-04-12T02:03:08.425Z,49.26
2018-04-12T02:05:36.680Z,47.30
2018-04-12T02:08:04.994Z,50.52
2018-04-12T02:10:33.303Z,46.46
2018-04-12T02:13:01.600Z,48.90
2018-04-12T02:15:30.388Z,46.10
2018-04-12T02:17:58.692Z,47.64
2018-04-12T02:20:26.964Z,47.42
2018-04-12T02:22:55.229Z,48.36
2018-04-12T02:25:23.546Z,47.56
2018-04-12T02:27:51.797Z,45.04
2018-04-12T02:30:20.088Z,46.70
2018-04-12T02:32:48.377Z,45.82
2018-04-12T02:35:16.665Z,47.62
2018-04-12T02:37:44.926Z,44.00
2018-04-12T02:40:13.213Z,43.96
2018-04-12T02:42:41.485Z,43.18
2018-04-12T02:45:09.781Z,45.44
2018-04-12T02:47:38.880Z,44.36
2018-04-12T02:50:07.136Z,45.96
2018-04-12T02:52:35.432Z,46.74
2018-04-12T02:55:03.703Z,43.00
2018-04-12T02:57:31.994Z,44.76
2018-04-12T03:00:01.147Z,44.46
2018-04-12T03:02:29.746Z,43.92
2018-04-12T03:04:58.009Z,47.20
2018-04-12T03:07:26.301Z,43.90
2018-04-12T03:09:54.585Z,44.16
2018-04-12T03:12:22.835Z,42.76
2018-04-12T03:14:51.124Z,46.34
2018-04-12T03:17:19.413Z,41.96
2018-04-12T03:19:47.709Z,43.86
2018-04-12T03:22:16.000Z,43.42
2018-04-12T03:24:44.704Z,41.08
2018-04-12T03:27:12.969Z,41.14
2018-04-12T03:29:40.465Z,43.96
2018-04-12T03:32:08.753Z,40.68
2018-04-12T03:34:38.000Z,42.46
2018-04-12T03:37:06.790Z,42.72
2018-04-12T03:39:35.044Z,43.88
2018-04-12T03:42:03.353Z,42.92
2018-04-12T03:44:31.616Z,43.38
2018-04-12T03:47:01.084Z,42.76
2018-04-12T03:49:30.046Z,41.22
2018-04-12T03:51:58.355Z,41.32
2018-04-12T03:54:26.616Z,40.14
2018-04-12T03:56:54.132Z,43.12
2018-04-12T03:59:22.376Z,38.76
2018-04-12T04:01:50.660Z,38.08
2018-04-12T04:04:18.925Z,39.88
2018-04-12T04:06:47.199Z,40.96
2018-04-12T04:09:15.500Z,41.18
2018-04-12T04:11:43.777Z,39.60
2018-04-12T04:14:23.916Z,40.62
2018-04-12T04:17:03.901Z,40.86
2018-04-12T04:19:44.382Z,39.66
2018-04-12T04:22:12.656Z,38.78
2018-04-12T04:24:41.273Z,38.12
2018-04-12T04:27:08.764Z,39.34
2018-04-12T04:29:37.065Z,37.06
2018-04-12T04:32:05.355Z,39.50
2018-04-12T04:34:33.643Z,36.20
2018-04-12T04:37:01.901Z,37.30
2018-04-12T04:39:31.120Z,39.34
2018-04-12T04:42:00.071Z,39.70
2018-04-12T04:44:28.361Z,41.04
2018-04-12T04:46:56.649Z,39.48
2018-04-12T04:49:24.926Z,38.68
2018-04-12T04:51:53.206Z,40.44
2018-04-12T04:54:21.465Z,40.64
2018-04-12T04:56:48.990Z,36.82
2018-04-12T04:59:17.249Z,39.18
2018-04-12T05:01:44.785Z,38.80
2018-04-12T05:04:13.040Z,39.32
2018-04-12T05:06:41.300Z,40.34
2018-04-12T05:09:09.598Z,39.60
2018-04-12T05:11:39.102Z,39.48
2018-04-12T05:14:08.275Z,38.70
2018-04-12T05:16:37.130Z,37.66
2018-04-12T05:19:05.398Z,38.16
2018-04-12T05:21:33.711Z,39.28
2018-04-12T05:24:01.980Z,37.56
2018-04-12T05:26:31.265Z,37.34
2018-04-12T05:28:59.562Z,40.58
2018-04-12T05:31:27.843Z,35.38
2018-04-12T05:33:56.107Z,36.40
2018-04-12T05:36:24.397Z,37.36
2018-04-12T05:38:52.685Z,38.28
2018-04-12T05:41:20.982Z,36.34
2018-04-12T05:43:49.237Z,40.20
2018-04-12T05:46:17.517Z,37.10
2018-04-12T05:48:45.806Z,39.92
2018-04-12T05:51:14.088Z,38.94
2018-04-12T05:53:42.368Z,36.74
2018-04-12T05:56:10.661Z,39.92
2018-04-12T05:58:38.980Z,40.06
2018-04-12T06:01:08.193Z,42.70
2018-04-12T06:03:39.675Z,37.58
2018-04-12T06:06:07.926Z,36.42
2018-04-12T06:08:36.208Z,37.74
2018-04-12T06:11:04.464Z,39.60
2018-04-12T06:13:37.427Z,39.20
2018-04-12T06:16:05.743Z,40.48
2018-04-12T06:18:34.033Z,39.28
2018-04-12T06:21:01.546Z,39.34
2018-04-12T06:23:31.017Z,40.68
2018-04-12T06:25:59.981Z,42.34
2018-04-12T06:28:28.239Z,37.88
2018-04-12T06:30:56.560Z,44.40
2018-04-12T06:33:24.821Z,41.04
2018-04-12T06:35:53.082Z,42.40
2018-04-12T06:38:21.364Z,43.38
2018-04-12T06:40:49.623Z,45.14
2018-04-12T06:43:17.934Z,40.94
2018-04-12T06:45:46.196Z,44.74
2018-04-12T06:48:14.477Z,43.90
2018-04-12T06:50:42.728Z,42.56
2018-04-12T06:53:11.015Z,44.52
2018-04-12T06:55:39.275Z,45.12
2018-04-12T06:58:08.139Z,43.82
2018-04-12T07:00:36.430Z,42.56
2018-04-12T07:03:04.689Z,44.60
2018-04-12T07:05:32.976Z,43.98
2018-04-12T07:08:02.279Z,44.06
2018-04-12T07:10:30.808Z,43.82
2018-04-12T07:12:59.105Z,46.10
2018-04-12T07:15:27.364Z,47.84
2018-04-12T07:17:55.641Z,43.68
2018-04-12T07:20:23.932Z,42.68
2018-04-12T07:22:52.196Z,45.08
2018-04-12T07:25:20.485Z,45.28
2018-04-12T07:27:50.714Z,46.86
2018-04-12T07:30:18.981Z,44.66
2018-04-12T07:32:47.242Z,47.58
2018-04-12T07:35:15.535Z,44.90
2018-04-12T07:37:43.831Z,45.30
2018-04-12T07:40:12.128Z,44.02
2018-04-12T07:42:40.397Z,44.92
2018-04-12T07:45:09.908Z,46.56
2018-04-12T07:47:39.438Z,46.04
2018-04-12T07:50:08.559Z,46.70
2018-04-12T07:52:37.617Z,47.16
2018-04-12T07:55:05.910Z,47.70
2018-04-12T07:57:34.198Z,47.46
2018-04-12T08:00:01.714Z,50.30
2018-04-12T08:02:31.243Z,53.08
2018-04-12T08:04:59.917Z,51.04
2018-04-12T08:07:28.176Z,51.02
2018-04-12T08:09:56.461Z,48.84
2018-04-12T08:12:24.741Z,49.96
2018-04-12T08:14:53.036Z,49.70
2018-04-12T08:17:20.545Z,50.00
2018-04-12T08:19:48.870Z,53.42
2018-04-12T08:22:17.151Z,50.02
2018-04-12T08:24:45.444Z,57.42
2018-04-12T08:27:13.709Z,55.80
2018-04-12T08:29:42.015Z,58.14
2018-04-12T08:32:10.293Z,56.66
2018-04-12T08:34:39.796Z,51.46
2018-04-12T08:37:09.299Z,64.54
2018-04-12T08:39:39.032Z,63.10
2018-04-12T08:42:08.346Z,56.80
2018-04-12T08:44:36.614Z,52.60
2018-04-12T08:47:04.932Z,59.16
2018-04-12T08:49:33.230Z,53.82
2018-04-12T08:52:02.355Z,60.44
2018-04-12T08:54:31.829Z,56.70
2018-04-12T08:57:00.853Z,53.48
2018-04-12T08:59:29.110Z,54.68
2018-04-12T09:01:57.381Z,54.76
2018-04-12T09:04:25.701Z,54.14
2018-04-12T09:06:53.172Z,53.00
2018-04-12T09:09:21.459Z,54.42
2018-04-12T09:11:48.959Z,51.44
2018-04-12T09:14:17.256Z,51.10
2018-04-12T09:16:45.572Z,50.68
2018-04-12T09:19:13.861Z,49.26
2018-04-12T09:21:42.140Z,53.58
2018-04-12T09:24:10.432Z,52.70
2018-04-12T09:26:39.893Z,53.92
2018-04-12T09:29:08.764Z,55.06
2018-04-12T09:31:37.522Z,53.28
2018-04-12T09:34:05.776Z,53.70
2018-04-12T09:36:34.082Z,50.38
2018-04-12T09:39:01.579Z,52.38
2018-04-12T09:41:30.804Z,56.26
2018-04-12T09:43:59.105Z,51.16
2018-04-12T09:46:27.389Z,53.42
2018-04-12T09:48:55.677Z,54.20
2018-04-12T09:51:23.160Z,55.10
2018-04-12T09:53:51.458Z,49.14
2018-04-12T09:56:19.723Z,52.54
2018-04-12T09:58:48.032Z,52.70
2018-04-12T10:01:16.294Z,50.96
2018-04-12T10:03:44.591Z,50.86
2018-04-12T10:06:18.587Z,52.96
2018-04-12T10:08:52.456Z,52.06
2018-04-12T10:11:20.767Z,54.74
2018-04-12T10:13:49.035Z,53.22
2018-04-12T10:16:16.561Z,49.14
2018-04-12T10:18:44.845Z,47.08
2018-04-12T10:21:13.104Z,48.72
2018-04-12T10:23:41.396Z,46.88
2018-04-12T10:26:09.652Z,47.46
2018-04-12T10:28:37.952Z,48.36
2018-04-12T10:31:06.246Z,43.68
2018-04-12T10:33:34.508Z,46.68
2018-04-12T10:36:02.830Z,45.08
2018-04-12T10:38:31.944Z,45.10
2018-04-12T10:41:01.017Z,44.30
2018-04-12T10:43:30.993Z,42.78
2018-04-12T10:45:59.252Z,44.62
2018-04-12T10:48:27.560Z,44.20
2018-04-12T10:50:55.836Z,40.90
2018-04-12T10:53:24.096Z,44.18
2018-04-12T10:55:52.378Z,42.96
2018-04-12T10:58:20.642Z,43.16
2018-04-12T11:00:48.982Z,40.70
2018-04-12T11:03:17.255Z,43.22
2018-04-12T11:05:44.752Z,46.56
2018-04-12T11:08:13.041Z,45.28
2018-04-12T11:10:43.274Z,43.98
2018-04-12T11:13:11.573Z,44.58
2018-04-12T11:15:39.825Z,45.72
2018-04-12T11:18:08.120Z,43.82
2018-04-12T11:20:36.425Z,43.84
2018-04-12T11:23:04.702Z,43.54
2018-04-12T11:25:33.039Z,43.60
2018-04-12T11:28:02.453Z,43.16
2018-04-12T11:30:31.304Z,44.76
2018-04-12T11:32:58.828Z,42.76
2018-04-12T11:35:27.121Z,43.22
2018-04-12T11:37:55.372Z,42.32
2018-04-12T11:40:22.897Z,39.96
2018-04-12T11:42:51.290Z,42.00
2018-04-12T11:45:20.429Z,41.32
2018-04-12T11:47:48.708Z,43.92
2018-04-12T11:50:16.997Z,39.50
2018-04-12T11:52:45.301Z,39.10
2018-04-12T11:55:13.591Z,39.02
2018-04-12T11:57:41.884Z,40.72
2018-04-12T12:00:11.080Z,38.70
2018-04-12T12:02:39.377Z,43.36
2018-04-12T12:05:08.188Z,40.04
2018-04-12T12:07:36.468Z,39.18
2018-04-12T12:10:04.756Z,39.82
2018-04-12T12:12:33.025Z,36.04
2018-04-12T12:15:02.013Z,36.40
2018-04-12T12:17:31.179Z,36.08
2018-04-12T12:20:00.076Z,38.42
2018-04-12T12:22:28.340Z,36.96
2018-04-12T12:24:56.633Z,39.22
2018-04-12T12:27:24.897Z,37.18
2018-04-12T12:29:53.189Z,40.08
2018-04-12T12:32:21.454Z,39.36
2018-04-12T12:34:49.741Z,37.28
2018-04-12T12:37:18.054Z,40.32
2018-04-12T12:39:46.327Z,41.56
2018-04-12T12:42:14.629Z,37.92
2018-04-12T12:44:42.883Z,39.34
2018-04-12T12:47:11.184Z,37.92
2018-04-12T12:49:40.371Z,37.80
2018-04-12T12:52:09.884Z,40.14
2018-04-12T12:54:39.304Z,38.52
2018-04-12T12:57:08.667Z,38.72
2018-04-12T12:59:37.515Z,39.50
2018-04-12T13:02:05.790Z,40.12
2018-04-12T13:04:34.090Z,37.56
2018-04-12T13:07:02.391Z,37.92
2018-04-12T13:09:30.722Z,38.62
2018-04-12T13:11:58.254Z,38.28
2018-04-12T13:14:26.548Z,36.68
2018-04-12T13:16:54.840Z,37.28
2018-04-12T13:19:23.112Z,37.14
2018-04-12T13:21:51.400Z,37.96
2018-04-12T13:24:19.660Z,37.04
2018-04-12T13:26:47.191Z,37.20
2018-04-12T13:29:15.462Z,39.42
2018-04-12T13:31:43.760Z,42.14
2018-04-12T13:34:12.049Z,37.82
2018-04-12T13:36:40.316Z,38.52
2018-04-12T13:39:08.610Z,36.74
2018-04-12T13:41:36.903Z,37.12
2018-04-12T13:44:05.204Z,35.52
2018-04-12T13:46:33.487Z,35.12
2018-04-12T13:49:01.806Z,37.30
2018-04-12T13:51:30.629Z,35.72
2018-04-12T13:53:58.897Z,34.52
2018-04-12T13:56:27.191Z,38.70
2018-04-12T13:58:55.448Z,37.38
2018-04-12T14:01:23.746Z,35.64
2018-04-12T14:03:52.015Z,37.12
2018-04-12T14:06:20.328Z,34.54
2018-04-12T14:08:47.833Z,36.48
2018-04-12T14:11:16.479Z,34.80
2018-04-12T14:13:45.942Z,36.28
2018-04-12T14:16:15.188Z,35.90
2018-04-12T14:18:43.891Z,34.32
2018-04-12T14:21:12.193Z,37.94
2018-04-12T14:23:42.430Z,32.78
2018-04-12T14:26:10.701Z,38.14
2018-04-12T14:28:39.006Z,39.18
2018-04-12T14:31:07.253Z,39.46
2018-04-12T14:33:38.908Z,34.82
2018-04-12T14:36:06.489Z,37.68
2018-04-12T14:38:34.729Z,36.88
2018-04-12T14:41:03.029Z,34.90
2018-04-12T14:43:34.163Z,38.92
2018-04-12T14:46:02.464Z,37.30
2018-04-12T14:48:32.049Z,35.96
2018-04-12T14:51:00.368Z,39.02
2018-04-12T14:53:31.172Z,36.42
2018-04-12T14:55:59.449Z,36.46
2018-04-12T14:58:27.709Z,39.44
2018-04-12T15:00:55.996Z,38.20
2018-04-12T15:03:25.293Z,38.28
2018-04-12T15:05:53.592Z,36.40
2018-04-12T15:08:21.864Z,33.32
2018-04-12T15:10:50.162Z,39.10
2018-04-12T15:13:18.455Z,34.30
2018-04-12T15:15:46.767Z,36.88
2018-04-12T15:18:15.045Z,36.06
2018-04-12T15:20:43.307Z,35.76
2018-04-12T15:23:11.601Z,38.98
2018-04-12T15:25:39.904Z,34.44
2018-04-12T15:28:09.113Z,35.84
2018-04-12T15:30:37.372Z,35.94
2018-04-12T15:33:05.682Z,37.00
2018-04-12T15:35:33.961Z,34.44
2018-04-12T15:38:01.461Z,35.12
2018-04-12T15:40:30.676Z,36.08
2018-04-12T15:42:58.948Z,35.34
2018-04-12T15:45:27.237Z,36.78
2018-04-12T15:47:55.509Z,35.36
2018-04-12T15:50:23.792Z,35.48
2018-04-12T15:52:52.049Z,35.22
2018-04-12T15:55:20.353Z,33.64
2018-04-12T15:57:48.643Z,32.90
2018-04-12T16:00:16.949Z,32.36
2018-04-12T16:02:46.218Z,32.90
2018-04-12T16:05:14.468Z,34.36
2018-04-12T16:07:42.752Z,34.08
2018-04-12T16:10:11.004Z,33.58
2018-04-12T16:12:39.293Z,34.80
2018-04-12T16:15:07.556Z,34.62
2018-04-12T16:17:35.852Z,30.30
2018-04-12T16:20:04.149Z,31.94
2018-04-12T16:22:31.652Z,33.52
2018-04-12T16:25:00.842Z,31.40
2018-04-12T16:27:29.133Z,30.46
2018-04-12T16:29:57.421Z,29.62
2018-04-12T16:32:24.924Z,30.50
2018-04-12T16:34:53.226Z,31.24
2018-04-12T16:37:21.532Z,32.36
2018-04-12T16:39:49.799Z,27.54
2018-04-12T16:42:18.074Z,32.94
2018-04-12T16:44:46.965Z,31.92
2018-04-12T16:47:14.447Z,31.30
2018-04-12T16:49:42.736Z,31.66
2018-04-12T16:52:11.021Z,31.14
2018-04-12T16:54:39.285Z,29.60
2018-04-12T16:57:07.564Z,31.38
2018-04-12T16:59:35.826Z,32.68
2018-04-12T17:02:04.116Z,31.32
2018-04-12T17:04:32.393Z,32.80
2018-04-12T17:07:01.383Z,32.62
2018-04-12T17:09:29.667Z,33.80
2018-04-12T17:11:58.058Z,32.94
2018-04-12T17:14:26.324Z,33.78
2018-04-12T17:16:54.586Z,34.08
2018-04-12T17:19:22.112Z,31.48
2018-04-12T17:21:51.607Z,33.66
2018-04-12T17:24:21.197Z,34.46
2018-04-12T17:26:49.874Z,32.84
2018-04-12T17:29:18.176Z,33.36
2018-04-12T17:31:46.441Z,34.74
2018-04-12T17:34:14.730Z,36.06
2018-04-12T17:36:43.025Z,33.26
2018-04-12T17:39:11.325Z,34.22
2018-04-12T17:41:39.576Z,32.88
2018-04-12T17:44:07.851Z,36.40
2018-04-12T17:46:36.284Z,36.06
2018-04-12T17:49:04.553Z,35.12
2018-04-12T17:51:32.846Z,34.80
2018-04-12T17:54:02.403Z,36.22
2018-04-12T17:56:31.229Z,38.13
2018-04-12T17:58:59.944Z,34.06
2018-04-12T18:01:28.240Z,36.66
2018-04-12T18:03:56.535Z,39.46
2018-04-12T18:06:24.808Z,36.56
2018-04-12T18:08:53.088Z,34.78
2018-04-12T18:11:21.755Z,36.06
2018-04-12T18:13:51.125Z,35.70
2018-04-12T18:16:20.443Z,36.58
2018-04-12T18:18:49.176Z,34.80
2018-04-12T18:21:17.495Z,37.86
2018-04-12T18:23:45.767Z,37.22
2018-04-12T18:26:14.046Z,34.78
2018-04-12T18:28:42.354Z,36.96
2018-04-12T18:31:10.644Z,35.88
2018-04-12T18:33:38.933Z,40.54
2018-04-12T18:36:07.188Z,40.62
2018-04-12T18:38:35.515Z,43.00
2018-04-12T18:41:03.824Z,40.30
2018-04-12T18:43:32.165Z,42.30
2018-04-12T18:46:00.438Z,38.08
2018-04-12T18:48:28.706Z,41.56
2018-04-12T18:50:56.997Z,39.32
2018-04-12T18:53:25.256Z,43.62
2018-04-12T18:55:53.574Z,41.88
2018-04-12T18:58:21.856Z,40.32
2018-04-12T19:00:50.873Z,42.44
2018-04-12T19:03:19.984Z,42.66
2018-04-12T19:05:48.248Z,42.10
2018-04-12T19:08:16.536Z,42.76
2018-04-12T19:10:44.810Z,39.16
2018-04-12T19:13:13.594Z,38.70
2018-04-12T19:15:41.860Z,39.12
2018-04-12T19:18:10.123Z,41.96
2018-04-12T19:20:38.452Z,42.90
2018-04-12T19:23:06.709Z,45.46
2018-04-12T19:25:34.972Z,40.44
2018-04-12T19:28:03.336Z,45.38
2018-04-12T19:30:34.014Z,42.74
2018-04-12T19:33:02.336Z,41.10
2018-04-12T19:35:31.255Z,40.88
2018-04-12T19:37:59.560Z,39.52
2018-04-12T19:40:27.836Z,41.52
2018-04-12T19:42:56.136Z,40.84
2018-04-12T19:45:24.398Z,42.86
2018-04-12T19:47:52.705Z,44.94
2018-04-12T19:50:20.953Z,39.56
2018-04-12T19:52:50.041Z,41.76
2018-04-12T19:55:18.324Z,41.80
2018-04-12T19:57:46.589Z,40.56
2018-04-12T20:00:14.883Z,43.56
2018-04-12T20:02:43.148Z,45.20
2018-04-12T20:05:11.451Z,41.84
2018-04-12T20:07:39.704Z,43.88
2018-04-12T20:10:07.962Z,43.52
2018-04-12T20:12:36.248Z,41.72
2018-04-12T20:15:04.510Z,44.22
2018-04-12T20:17:32.789Z,44.80
2018-04-12T20:20:02.342Z,41.54
2018-04-12T20:22:31.424Z,43.10
2018-04-12T20:25:01.089Z,40.94
2018-04-12T20:27:30.233Z,41.96
2018-04-12T20:29:58.522Z,41.00
2018-04-12T20:32:26.828Z,41.90
2018-04-12T20:34:55.117Z,43.18
2018-04-12T20:37:22.649Z,37.30
2018-04-12T20:39:50.933Z,43.84
2018-04-12T20:42:19.216Z,41.92
2018-04-12T20:44:47.521Z,45.02
2018-04-12T20:47:15.824Z,41.18
2018-04-12T20:49:44.136Z,40.32
2018-04-12T20:52:12.388Z,43.64
2018-04-12T20:54:40.676Z,41.44
2018-04-12T20:57:08.934Z,38.42
2018-04-12T20:59:37.229Z,39.44
2018-04-12T21:02:05.513Z,41.58
2018-04-12T21:04:33.832Z,38.84
2018-04-12T21:07:02.662Z,41.66
2018-04-12T21:09:32.038Z,38.96
2018-04-12T21:12:02.130Z,37.90
2018-04-12T21:14:30.412Z,39.76
2018-04-12T21:16:58.711Z,41.60
2018-04-12T21:19:26.968Z,41.82
2018-04-12T21:21:55.221Z,38.92
2018-04-12T21:24:23.504Z,37.34
2018-04-12T21:26:51.777Z,36.98
2018-04-12T21:29:20.057Z,36.84
2018-04-12T21:31:48.317Z,37.26
2018-04-12T21:34:16.621Z,38.76
2018-04-12T21:36:44.913Z,37.36
2018-04-12T21:39:13.160Z,36.22
2018-04-12T21:41:41.447Z,38.56
2018-04-12T21:44:09.708Z,36.60
2018-04-12T21:46:37.990Z,39.50
2018-04-12T21:49:05.473Z,38.12
2018-04-12T21:51:33.761Z,41.22
2018-04-12T21:54:02.427Z,39.16
2018-04-12T21:56:34.110Z,35.96
2018-04-12T21:59:02.581Z,39.70
2018-04-12T22:01:32.052Z,35.98
2018-04-12T22:04:01.454Z,36.62
2018-04-12T22:06:31.264Z,38.24
2018-04-12T22:08:59.558Z,33.78
2018-04-12T22:11:27.813Z,33.42
2018-04-12T22:13:56.074Z,30.74
2018-04-12T22:16:24.365Z,30.20
2018-04-12T22:18:52.624Z,30.68
2018-04-12T22:21:20.927Z,32.30
2018-04-12T22:23:49.181Z,31.38
2018-04-12T22:26:17.461Z,30.14
2018-04-12T22:28:45.719Z,27.00
2018-04-12T22:31:14.004Z,30.84
2018-04-12T22:33:45.483Z,29.34
2018-04-12T22:36:13.773Z,29.14
2018-04-12T22:38:42.029Z,29.34
2018-04-12T22:41:10.317Z,30.02
2018-04-12T22:43:38.569Z,30.64
2018-04-12T22:46:06.869Z,30.98
2018-04-12T22:48:35.125Z,29.30
2018-04-12T22:51:03.388Z,28.14
2018-04-12T22:53:32.584Z,32.22
2018-04-12T22:56:02.068Z,32.78
2018-04-12T22:58:30.371Z,29.50
2018-04-12T23:00:58.629Z,32.32
2018-04-12T23:03:26.924Z,32.60
2018-04-12T23:05:55.200Z,30.76
2018-04-12T23:08:23.491Z,23.60
2018-04-12T23:10:51.740Z,25.12
2018-04-12T23:13:23.337Z,29.12
2018-04-12T23:15:51.616Z,29.92
2018-04-12T23:18:19.869Z,28.78
2018-04-12T23:20:48.159Z,30.00
2018-04-12T23:23:16.445Z,29.40
2018-04-12T23:25:44.726Z,30.18
2018-04-12T23:28:13.044Z,28.38
2018-04-12T23:30:41.309Z,30.88
2018-04-12T23:33:09.560Z,29.66
2018-04-12T23:35:37.851Z,28.26
2018-04-12T23:38:06.136Z,30.50
2018-04-12T23:40:34.424Z,32.56
2018-04-12T23:43:03.827Z,27.38
2018-04-12T23:45:33.160Z,26.92
2018-04-12T23:48:07.492Z,26.66
2018-04-12T23:50:35.792Z,32.42
2018-04-12T23:53:03.280Z,28.48
2018-04-12T23:55:32.813Z,28.98
2018-04-12T23:58:02.740Z,30.12
